createdAt,value
2022-12-29T00:01:03.196Z,5.40
2022-12-29T00:03:31.735Z,5.20
2022-12-29T00:06:41.967Z,5.00
2022-12-29T00:09:12.839Z,4.80
2022-12-29T00:11:41.513Z,5.10
2022-12-29T00:14:30.094Z,6.20
2022-12-29T00:16:58.775Z,5.00
2022-12-29T00:19:45.908Z,4.80
2022-12-29T00:22:34.846Z,4.70
2022-12-29T00:25:22.692Z,4.70
2022-12-29T00:28:09.797Z,5.20
2022-12-29T00:30:58.693Z,4.50
2022-12-29T00:33:50.756Z,5.00
2022-12-29T00:36:48.185Z,4.60
2022-12-29T00:39:38.627Z,4.90
2022-12-29T00:42:27.429Z,4.10
2022-12-29T00:44:55.973Z,5.00
2022-12-29T00:47:24.515Z,4.90
2022-12-29T00:49:52.944Z,4.60
2022-12-29T00:52:21.320Z,3.80
2022-12-29T00:54:49.759Z,4.40
2022-12-29T00:57:18.353Z,4.50
2022-12-29T00:59:46.816Z,5.10
2022-12-29T01:02:15.305Z,5.50
2022-12-29T01:04:43.871Z,5.40
2022-12-29T01:07:18.407Z,4.60
2022-12-29T01:10:05.471Z,5.20
2022-12-29T01:12:46.485Z,5.10
2022-12-29T01:15:16.379Z,5.30
2022-12-29T01:17:44.832Z,5.70
2022-12-29T01:20:13.550Z,6.10
2022-12-29T01:22:43.846Z,5.40
2022-12-29T01:25:12.378Z,5.60
2022-12-29T01:27:40.975Z,5.40
2022-12-29T01:30:10.075Z,5.10
2022-12-29T01:32:38.523Z,5.50
2022-12-29T01:35:07.227Z,5.70
2022-12-29T01:37:35.829Z,5.10
2022-12-29T01:40:05.587Z,4.60
2022-12-29T01:42:34.044Z,4.60
2022-12-29T01:45:14.785Z,4.60
2022-12-29T01:47:53.489Z,4.20
2022-12-29T01:50:30.202Z,4.50
2022-12-29T01:53:03.142Z,4.10
2022-12-29T01:55:37.651Z,4.30
2022-12-29T01:58:07.996Z,4.70
2022-12-29T02:00:38.163Z,4.10
2022-12-29T02:03:08.950Z,4.30
2022-12-29T02:06:05.368Z,3.80
2022-12-29T02:08:34.177Z,4.20
2022-12-29T02:11:04.033Z,3.60
2022-12-29T02:13:32.591Z,4.00
2022-12-29T02:16:22.483Z,3.90
2022-12-29T02:19:06.063Z,4.50
2022-12-29T02:22:13.962Z,3.60
2022-12-29T02:25:18.224Z,4.00
2022-12-29T02:27:56.778Z,4.00
2022-12-29T02:30:58.121Z,3.40
2022-12-29T02:33:45.308Z,4.20
2022-12-29T02:36:40.339Z,3.40
2022-12-29T02:39:30.451Z,3.20
2022-12-29T02:42:10.385Z,3.70
2022-12-29T02:45:03.140Z,3.00
2022-12-29T02:47:58.224Z,3.60
2022-12-29T02:50:34.651Z,3.40
2022-12-29T02:53:07.813Z,3.40
2022-12-29T02:55:36.387Z,3.70
2022-12-29T02:58:18.620Z,3.70
2022-12-29T03:01:18.065Z,3.30
2022-12-29T03:04:18.148Z,3.50
2022-12-29T03:06:55.842Z,3.60
2022-12-29T03:09:53.842Z,3.50
2022-12-29T03:12:55.645Z,3.40
2022-12-29T03:16:01.348Z,3.90
2022-12-29T03:18:52.600Z,3.40
2022-12-29T03:21:49.325Z,3.60
2022-12-29T03:24:22.164Z,3.10
2022-12-29T03:26:54.375Z,3.00
2022-12-29T03:29:22.740Z,3.40
2022-12-29T03:31:54.389Z,3.40
2022-12-29T03:34:25.358Z,2.80
2022-12-29T03:36:56.551Z,3.20
2022-12-29T03:39:26.616Z,3.00
2022-12-29T03:42:02.786Z,2.90
2022-12-29T03:44:38.332Z,3.30
2022-12-29T03:47:08.242Z,3.20
2022-12-29T03:49:36.626Z,2.70
2022-12-29T03:52:05.716Z,3.10
2022-12-29T03:54:34.367Z,3.20
2022-12-29T03:57:02.815Z,2.80
2022-12-29T03:59:31.167Z,3.10
2022-12-29T04:01:59.623Z,3.00
2022-12-29T04:04:28.145Z,3.10
2022-12-29T04:07:03.963Z,3.20
2022-12-29T04:09:32.679Z,3.60
2022-12-29T04:12:01.098Z,3.10
2022-12-29T04:14:29.448Z,3.10
2022-12-29T04:16:57.830Z,3.30
2022-12-29T04:19:26.180Z,2.70
2022-12-29T04:21:54.548Z,2.90
2022-12-29T04:24:23.010Z,2.90
2022-12-29T04:26:51.473Z,2.80
2022-12-29T04:29:19.851Z,2.90
2022-12-29T04:31:48.391Z,2.60
2022-12-29T04:34:16.842Z,2.40
2022-12-29T04:36:47.030Z,3.10
2022-12-29T04:39:15.375Z,3.00
2022-12-29T04:41:43.992Z,2.90
2022-12-29T04:44:12.369Z,2.80
2022-12-29T04:46:40.912Z,3.20
2022-12-29T04:49:10.001Z,2.70
2022-12-29T04:51:38.427Z,2.70
2022-12-29T04:54:06.777Z,2.80
2022-12-29T04:56:35.164Z,3.10
2022-12-29T04:59:03.642Z,3.30
2022-12-29T05:01:32.100Z,2.90
2022-12-29T05:04:00.597Z,3.20
2022-12-29T05:07:06.960Z,2.70
2022-12-29T05:09:35.960Z,3.50
2022-12-29T05:12:05.090Z,2.80
2022-12-29T05:14:33.456Z,3.00
2022-12-29T05:17:02.090Z,2.90
2022-12-29T05:19:30.536Z,2.80
2022-12-29T05:21:58.988Z,3.00
2022-12-29T05:24:27.357Z,3.10
2022-12-29T05:26:55.705Z,3.00
2022-12-29T05:29:24.091Z,2.70
2022-12-29T05:31:52.599Z,2.80
2022-12-29T05:34:21.034Z,2.30
2022-12-29T05:36:49.492Z,2.50
2022-12-29T05:39:18.009Z,2.40
2022-12-29T05:41:47.341Z,2.30
2022-12-29T05:44:15.774Z,2.90
2022-12-29T05:46:44.171Z,2.20
2022-12-29T05:49:12.674Z,2.20
2022-12-29T05:51:41.029Z,2.10
2022-12-29T05:54:09.453Z,1.90
2022-12-29T05:56:37.815Z,2.20
2022-12-29T05:59:06.273Z,2.20
2022-12-29T06:01:35.813Z,1.80
2022-12-29T06:04:04.638Z,2.00
2022-12-29T06:06:35.117Z,2.00
2022-12-29T06:09:04.135Z,2.10
2022-12-29T06:11:32.507Z,2.40
2022-12-29T06:14:00.897Z,1.80
2022-12-29T06:16:29.394Z,3.00
2022-12-29T06:18:57.874Z,2.00
2022-12-29T06:21:26.270Z,1.80
2022-12-29T06:23:54.899Z,2.10
2022-12-29T06:26:23.334Z,1.90
2022-12-29T06:28:52.057Z,2.30
2022-12-29T06:31:20.625Z,2.20
2022-12-29T06:33:50.232Z,2.10
2022-12-29T06:36:19.037Z,2.10
2022-12-29T06:38:47.545Z,2.20
2022-12-29T06:41:16.046Z,2.30
2022-12-29T06:43:45.793Z,2.00
2022-12-29T06:46:14.228Z,1.80
2022-12-29T06:48:43.560Z,2.30
2022-12-29T06:51:11.903Z,2.30
2022-12-29T06:53:40.384Z,2.20
2022-12-29T06:56:09.447Z,2.70
2022-12-29T06:58:37.824Z,2.20
2022-12-29T07:01:06.325Z,2.40
2022-12-29T07:03:34.875Z,2.90
2022-12-29T07:06:03.906Z,2.80
2022-12-29T07:08:33.716Z,2.20
2022-12-29T07:11:02.251Z,2.30
2022-12-29T07:13:30.753Z,2.40
2022-12-29T07:15:59.125Z,2.30
2022-12-29T07:18:27.516Z,2.50
2022-12-29T07:20:56.215Z,2.30
2022-12-29T07:23:25.713Z,2.50
2022-12-29T07:26:02.566Z,2.10
2022-12-29T07:28:31.671Z,2.50
2022-12-29T07:31:00.818Z,3.30
2022-12-29T07:33:33.545Z,3.80
2022-12-29T07:36:02.357Z,2.50
2022-12-29T07:38:30.725Z,3.40
2022-12-29T07:40:59.861Z,3.00
2022-12-29T07:43:28.921Z,2.90
2022-12-29T07:45:57.428Z,2.80
2022-12-29T07:48:26.052Z,2.40
2022-12-29T07:50:55.127Z,3.20
2022-12-29T07:53:23.581Z,3.20
2022-12-29T07:55:52.466Z,2.70
2022-12-29T07:58:20.817Z,2.40
2022-12-29T08:00:49.258Z,4.40
2022-12-29T08:03:17.626Z,4.40
2022-12-29T08:05:46.139Z,3.90
2022-12-29T08:08:14.485Z,4.30
2022-12-29T08:10:42.950Z,3.90
2022-12-29T08:13:11.348Z,4.70
2022-12-29T08:15:40.565Z,7.40
2022-12-29T08:18:09.026Z,8.90
2022-12-29T08:20:37.484Z,9.50
2022-12-29T08:23:05.948Z,9.70
2022-12-29T08:25:34.359Z,7.60
2022-12-29T08:28:02.949Z,7.60
2022-12-29T08:30:31.278Z,5.80
2022-12-29T08:32:59.762Z,6.50
2022-12-29T08:35:28.237Z,6.90
2022-12-29T08:37:56.813Z,6.10
2022-12-29T08:40:25.813Z,5.20
2022-12-29T08:42:54.386Z,5.00
2022-12-29T08:45:22.885Z,4.80
2022-12-29T08:47:51.484Z,4.60
2022-12-29T08:50:19.836Z,4.10
2022-12-29T08:52:48.484Z,3.90
2022-12-29T08:55:17.221Z,3.40
2022-12-29T08:57:45.774Z,3.50
2022-12-29T09:00:16.614Z,3.50
2022-12-29T09:02:46.002Z,3.70
2022-12-29T09:05:15.138Z,3.20
2022-12-29T09:07:47.198Z,3.50
2022-12-29T09:10:16.339Z,3.60
2022-12-29T09:12:45.108Z,3.40
2022-12-29T09:15:14.236Z,2.80
2022-12-29T09:17:46.650Z,3.30
2022-12-29T09:20:18.088Z,2.60
2022-12-29T09:22:47.871Z,3.40
2022-12-29T09:25:16.964Z,2.80
2022-12-29T09:27:45.597Z,3.30
2022-12-29T09:30:15.899Z,3.30
2022-12-29T09:32:53.404Z,2.80
2022-12-29T09:35:23.327Z,3.80
2022-12-29T09:37:52.502Z,3.40
2022-12-29T09:40:27.861Z,3.50
2022-12-29T09:44:01.433Z,2.80
2022-12-29T09:46:35.886Z,3.10
2022-12-29T09:49:22.842Z,2.70
2022-12-29T09:51:55.816Z,3.30
2022-12-29T09:54:56.516Z,2.40
2022-12-29T09:57:42.275Z,2.80
2022-12-29T10:00:18.072Z,2.60
2022-12-29T10:02:56.365Z,3.10
2022-12-29T10:05:49.267Z,3.10
2022-12-29T10:08:45.691Z,3.00
2022-12-29T10:11:34.007Z,2.50
2022-12-29T10:14:15.711Z,2.90
2022-12-29T10:16:57.798Z,2.80
2022-12-29T10:19:55.466Z,2.20
2022-12-29T10:22:45.175Z,2.70
2022-12-29T10:25:26.042Z,3.00
2022-12-29T10:28:00.725Z,2.80
2022-12-29T10:30:30.424Z,2.90
2022-12-29T10:33:02.498Z,3.10
2022-12-29T10:35:40.496Z,3.00
2022-12-29T10:38:42.832Z,2.90
2022-12-29T10:41:22.678Z,2.80
2022-12-29T10:43:56.686Z,3.00
2022-12-29T10:46:30.874Z,2.50
2022-12-29T10:48:59.400Z,3.00
2022-12-29T10:51:35.151Z,2.90
2022-12-29T10:54:21.952Z,3.10
2022-12-29T10:57:12.303Z,2.70
2022-12-29T10:59:40.847Z,3.10
2022-12-29T11:02:12.709Z,2.90
2022-12-29T11:04:50.668Z,3.00
2022-12-29T11:07:27.150Z,3.00
2022-12-29T11:09:56.189Z,3.00
2022-12-29T11:12:26.819Z,2.90
2022-12-29T11:15:15.487Z,3.80
2022-12-29T11:17:58.372Z,3.40
2022-12-29T11:20:35.166Z,3.60
2022-12-29T11:23:06.184Z,3.50
2022-12-29T11:25:34.859Z,3.40
2022-12-29T11:28:17.680Z,3.20
2022-12-29T11:30:46.659Z,2.80
2022-12-29T11:33:15.640Z,2.90
2022-12-29T11:35:45.039Z,2.80
2022-12-29T11:38:30.002Z,2.90
2022-12-29T11:40:58.632Z,2.80
2022-12-29T11:43:38.615Z,3.10
2022-12-29T11:46:08.524Z,2.80
2022-12-29T11:48:41.764Z,3.10
2022-12-29T11:51:12.873Z,2.60
2022-12-29T11:53:49.007Z,2.60
2022-12-29T11:56:40.166Z,2.60
2022-12-29T11:59:28.255Z,3.00
2022-12-29T12:02:00.259Z,2.60
2022-12-29T12:04:35.884Z,3.40
2022-12-29T12:07:17.147Z,3.40
2022-12-29T12:09:51.265Z,3.20
2022-12-29T12:12:29.374Z,3.40
2022-12-29T12:15:01.009Z,2.70
2022-12-29T12:18:01.008Z,2.70
2022-12-29T12:21:09.827Z,2.90
2022-12-29T12:23:43.607Z,2.70
2022-12-29T12:26:20.108Z,2.50
2022-12-29T12:29:06.139Z,3.10
2022-12-29T12:31:54.642Z,2.80
2022-12-29T12:34:45.061Z,3.00
2022-12-29T12:38:05.421Z,2.60
2022-12-29T12:40:55.644Z,2.70
2022-12-29T12:43:45.446Z,2.80
2022-12-29T12:46:19.481Z,2.10
2022-12-29T12:49:22.082Z,3.30
2022-12-29T12:52:19.414Z,3.90
2022-12-29T12:55:15.656Z,3.70
2022-12-29T12:58:12.082Z,3.00
2022-12-29T13:01:15.583Z,2.50
2022-12-29T13:03:46.731Z,2.40
2022-12-29T13:07:09.106Z,2.60
2022-12-29T13:09:56.759Z,2.40
2022-12-29T13:12:33.799Z,2.20
2022-12-29T13:15:20.578Z,2.60
2022-12-29T13:18:01.971Z,2.80
2022-12-29T13:20:43.810Z,2.50
2022-12-29T13:23:32.915Z,2.60
2022-12-29T13:26:30.709Z,2.80
2022-12-29T13:29:33.718Z,2.60
2022-12-29T13:32:43.646Z,3.30
2022-12-29T13:35:39.409Z,3.10
2022-12-29T13:38:18.668Z,3.40
2022-12-29T13:40:53.461Z,4.30
2022-12-29T13:43:24.039Z,3.10
2022-12-29T13:46:15.138Z,3.40
2022-12-29T13:48:53.850Z,3.00
2022-12-29T13:51:27.941Z,3.00
2022-12-29T13:54:11.776Z,4.50
2022-12-29T13:56:52.502Z,4.50
2022-12-29T13:59:44.180Z,3.10
2022-12-29T14:02:48.510Z,4.00
2022-12-29T14:05:22.757Z,3.60
2022-12-29T14:08:15.065Z,3.00
2022-12-29T14:10:52.903Z,3.40
2022-12-29T14:13:26.860Z,3.90
2022-12-29T14:18:31.177Z,3.20
2022-12-29T14:21:08.579Z,3.30
2022-12-29T14:23:48.048Z,2.70
2022-12-29T14:26:32.271Z,2.50
2022-12-29T14:29:25.097Z,5.40
2022-12-29T14:31:54.325Z,3.20
2022-12-29T14:34:22.687Z,2.80
2022-12-29T14:36:55.685Z,2.50
2022-12-29T14:39:45.516Z,3.40
2022-12-29T14:42:18.793Z,2.70
2022-12-29T14:44:53.257Z,2.80
2022-12-29T14:47:24.339Z,3.20
2022-12-29T14:49:54.159Z,2.90
2022-12-29T14:52:26.913Z,8.10
2022-12-29T14:55:08.581Z,2.90
2022-12-29T14:57:42.460Z,3.10
2022-12-29T15:00:20.638Z,4.60
2022-12-29T15:03:02.538Z,4.40
2022-12-29T15:05:42.129Z,3.30
2022-12-29T15:08:12.956Z,4.40
2022-12-29T15:10:48.344Z,5.20
2022-12-29T15:13:22.660Z,5.70
2022-12-29T15:15:51.370Z,5.80
2022-12-29T15:18:32.827Z,4.80
2022-12-29T15:21:04.892Z,5.40
2022-12-29T15:23:36.483Z,5.90
2022-12-29T15:26:09.742Z,6.40
2022-12-29T15:28:46.697Z,4.80
2022-12-29T15:31:18.644Z,7.00
2022-12-29T15:33:51.057Z,6.30
2022-12-29T15:36:28.182Z,5.80
2022-12-29T15:38:57.949Z,6.10
2022-12-29T15:42:03.113Z,6.10
2022-12-29T15:44:43.783Z,6.00
2022-12-29T15:47:27.420Z,4.80
2022-12-29T15:50:03.457Z,5.50
2022-12-29T15:52:34.051Z,5.00
2022-12-29T15:55:03.669Z,5.80
2022-12-29T15:57:38.724Z,5.70
2022-12-29T16:00:24.516Z,5.60
2022-12-29T16:02:55.410Z,7.90
2022-12-29T16:05:24.908Z,7.80
2022-12-29T16:07:56.387Z,8.00
2022-12-29T16:10:37.553Z,6.80
2022-12-29T16:13:18.349Z,6.40
2022-12-29T16:15:48.474Z,6.40
2022-12-29T16:18:30.686Z,5.40
2022-12-29T16:20:59.161Z,5.40
2022-12-29T16:23:31.442Z,5.50
2022-12-29T16:26:01.004Z,5.50
2022-12-29T16:28:40.228Z,6.00
2022-12-29T16:31:35.223Z,6.20
2022-12-29T16:34:38.966Z,5.00
2022-12-29T16:37:26.142Z,5.40
2022-12-29T16:39:54.510Z,5.10
2022-12-29T16:42:37.651Z,5.10
2022-12-29T16:45:21.708Z,5.50
2022-12-29T16:50:40.022Z,6.00
2022-12-29T16:53:29.652Z,5.40
2022-12-29T16:56:02.191Z,5.80
2022-12-29T16:58:32.969Z,5.90
2022-12-29T17:01:03.792Z,5.70
2022-12-29T17:03:58.644Z,5.60
2022-12-29T17:06:27.121Z,6.20
2022-12-29T17:08:55.505Z,5.50
2022-12-29T17:11:50.187Z,5.80
2022-12-29T17:14:45.912Z,5.80
2022-12-29T17:17:40.624Z,6.70
2022-12-29T17:20:21.853Z,6.80
2022-12-29T17:22:52.744Z,6.70
2022-12-29T17:25:29.286Z,6.40
2022-12-29T17:28:28.378Z,5.60
2022-12-29T17:31:03.890Z,5.60
2022-12-29T17:33:37.830Z,5.90
2022-12-29T17:36:06.470Z,5.90
2022-12-29T17:38:38.261Z,6.30
2022-12-29T17:41:15.195Z,5.90
2022-12-29T17:43:43.695Z,5.90
2022-12-29T17:46:12.826Z,6.40
2022-12-29T17:48:41.213Z,5.70
2022-12-29T17:51:11.543Z,5.70
2022-12-29T17:53:40.313Z,5.60
2022-12-29T17:56:10.543Z,6.10
2022-12-29T17:58:38.933Z,7.00
2022-12-29T18:01:07.964Z,6.50
2022-12-29T18:03:41.653Z,6.30
2022-12-29T18:08:42.668Z,7.30
2022-12-29T18:11:40.568Z,6.00
2022-12-29T18:14:15.050Z,5.60
2022-12-29T18:19:12.482Z,5.60
2022-12-29T18:21:43.803Z,6.30
2022-12-29T18:24:15.768Z,5.90
2022-12-29T18:26:44.515Z,5.40
2022-12-29T18:29:13.465Z,5.10
2022-12-29T18:31:42.218Z,5.90
2022-12-29T18:34:15.974Z,5.50
2022-12-29T18:36:44.640Z,5.30
2022-12-29T18:39:13.633Z,5.70
2022-12-29T18:41:42.060Z,6.10
2022-12-29T18:44:14.228Z,5.40
2022-12-29T18:46:43.392Z,5.30
2022-12-29T18:49:11.881Z,5.10
2022-12-29T18:51:40.551Z,4.80
2022-12-29T18:54:33.101Z,5.20
2022-12-29T18:57:01.840Z,6.10
2022-12-29T18:59:29.123Z,5.70
2022-12-29T19:01:57.566Z,5.80
2022-12-29T19:04:26.204Z,6.20
2022-12-29T19:07:23.501Z,6.10
2022-12-29T19:09:52.196Z,4.90
2022-12-29T19:12:25.045Z,5.60
2022-12-29T19:14:56.691Z,5.90
2022-12-29T19:17:25.507Z,6.00
2022-12-29T19:19:54.286Z,6.00
2022-12-29T19:22:22.675Z,5.60
2022-12-29T19:24:56.323Z,5.90
2022-12-29T19:27:28.246Z,6.40
2022-12-29T19:29:57.316Z,6.30
2022-12-29T19:32:26.176Z,6.40
2022-12-29T19:34:54.591Z,6.10
2022-12-29T19:37:23.588Z,6.00
2022-12-29T19:39:53.541Z,6.60
2022-12-29T19:42:22.437Z,7.00
2022-12-29T19:44:51.298Z,6.30
2022-12-29T19:47:21.038Z,7.10
2022-12-29T19:49:50.194Z,5.70
2022-12-29T19:52:18.800Z,7.10
2022-12-29T19:54:47.143Z,7.70
2022-12-29T19:57:15.589Z,7.50
2022-12-29T19:59:44.080Z,7.80
2022-12-29T20:02:29.034Z,6.50
2022-12-29T20:04:58.143Z,7.40
2022-12-29T20:07:34.097Z,7.60
2022-12-29T20:10:03.008Z,7.90
2022-12-29T20:12:31.516Z,9.20
2022-12-29T20:15:00.376Z,7.80
2022-12-29T20:18:02.375Z,8.40
2022-12-29T20:20:17.761Z,11.80
2022-12-29T20:22:46.313Z,7.40
2022-12-29T20:28:03.130Z,7.50
2022-12-29T20:30:32.162Z,7.00
2022-12-29T20:33:06.092Z,6.90
2022-12-29T20:35:37.462Z,8.40
2022-12-29T20:38:06.192Z,7.60
2022-12-29T20:40:44.147Z,7.40
2022-12-29T20:43:16.813Z,7.20
2022-12-29T20:45:45.308Z,7.30
2022-12-29T20:48:13.712Z,8.00
2022-12-29T20:50:42.462Z,8.60
2022-12-29T20:53:12.188Z,7.90
2022-12-29T20:55:41.394Z,8.10
2022-12-29T20:58:26.183Z,7.50
2022-12-29T21:00:56.429Z,7.70
2022-12-29T21:03:25.412Z,7.70
2022-12-29T21:05:55.581Z,8.60
2022-12-29T21:08:30.639Z,8.20
2022-12-29T21:10:59.562Z,7.20
2022-12-29T21:13:28.494Z,8.00
2022-12-29T21:16:04.730Z,7.50
2022-12-29T21:18:33.760Z,7.30
2022-12-29T21:21:08.454Z,7.40
2022-12-29T21:23:39.530Z,8.50
2022-12-29T21:26:13.627Z,7.90
2022-12-29T21:28:43.871Z,9.10
2022-12-29T21:31:35.599Z,8.30
2022-12-29T21:34:06.524Z,7.10
2022-12-29T21:36:34.880Z,7.60
2022-12-29T21:39:04.630Z,6.40
2022-12-29T21:41:33.138Z,6.50
2022-12-29T21:44:20.544Z,6.70
2022-12-29T21:46:48.908Z,7.40
2022-12-29T21:49:17.363Z,6.50
2022-12-29T21:51:51.481Z,6.40
2022-12-29T21:54:47.619Z,6.00
2022-12-29T21:57:37.498Z,6.40
2022-12-29T22:00:27.266Z,6.80
2022-12-29T22:03:22.494Z,7.10
2022-12-29T22:06:11.948Z,6.00
2022-12-29T22:08:59.660Z,6.60
2022-12-29T22:11:46.889Z,5.80
2022-12-29T22:14:15.294Z,6.30
2022-12-29T22:16:43.734Z,5.50
2022-12-29T22:19:12.074Z,7.30
2022-12-29T22:21:40.518Z,6.80
2022-12-29T22:24:09.286Z,6.80
2022-12-29T22:26:37.737Z,6.20
2022-12-29T22:29:06.307Z,7.60
2022-12-29T22:31:35.169Z,6.00
2022-12-29T22:34:05.388Z,7.00
2022-12-29T22:36:33.815Z,6.00
2022-12-29T22:39:02.335Z,6.30
2022-12-29T22:41:30.877Z,6.40
2022-12-29T22:43:59.302Z,6.30
2022-12-29T22:46:27.947Z,6.40
2022-12-29T22:48:57.960Z,6.90
2022-12-29T22:51:26.775Z,6.30
2022-12-29T22:53:55.150Z,6.30
2022-12-29T22:56:24.035Z,6.30
2022-12-29T22:58:52.478Z,6.70
2022-12-29T23:01:24.036Z,6.10
2022-12-29T23:03:52.464Z,6.70
2022-12-29T23:06:20.838Z,6.60
2022-12-29T23:08:54.596Z,7.00
2022-12-29T23:11:23.639Z,6.00
2022-12-29T23:13:50.730Z,6.40
2022-12-29T23:16:20.104Z,6.40
2022-12-29T23:18:50.181Z,6.50
2022-12-29T23:21:18.987Z,6.80
2022-12-29T23:23:53.852Z,7.30
2022-12-29T23:26:39.109Z,6.40
2022-12-29T23:29:10.103Z,7.00
2022-12-29T23:31:39.683Z,6.50
2022-12-29T23:34:10.446Z,5.60
2022-12-29T23:36:39.454Z,6.90
2022-12-29T23:39:11.574Z,6.20
2022-12-29T23:41:39.973Z,7.00
2022-12-29T23:44:08.396Z,6.20
2022-12-29T23:46:37.357Z,6.70
2022-12-29T23:49:06.103Z,6.30
2022-12-29T23:51:34.434Z,5.80
2022-12-29T23:54:03.816Z,6.50
2022-12-29T23:56:32.730Z,6.50
2022-12-29T23:59:05.476Z,6.20
